Time;durP1;ratioP1;P1;durP2;ratioP2;P2;SDS_P1;SDS_P2;PMS_P1;PMS_P2;Temp;Humidity;BMP_temperature;BMP_pressure;BME280_temperature;BME280_humidity;BME280_pressure;Samples;Min_cycle;Max_cycle;Signal;HPM_P1;HPM_P2
2021/07/13 00:01:56;;;;;;;14.83;9.08;;;;;;;20.37;74.01;99495.63;130443;1089;22644;-56
2021/07/13 00:04:25;;;;;;;16.20;9.25;;;;;;;20.32;74.09;99506.84;130451;1088;22506;-57
2021/07/13 00:06:54;;;;;;;14.43;9.40;;;;;;;20.29;74.20;99507.48;130336;1090;114033;-56
2021/07/13 00:09:24;;;;;;;15.93;10.15;;;;;;;20.25;74.32;99504.54;130477;1089;22622;-56
2021/07/13 00:11:53;;;;;;;23.05;10.60;;;;;;;20.22;74.41;99504.36;130347;1089;114395;-56
2021/07/13 00:14:23;;;;;;;15.98;10.63;;;;;;;20.19;74.09;99511.38;130471;1089;22527;-57
2021/07/13 00:19:37;;;;;;;24.18;11.08;;;;;;;20.11;74.50;99524.03;125256;1093;23727;-57
2021/07/13 00:22:06;;;;;;;14.95;9.83;;;;;;;20.08;74.61;99521.91;125022;1092;25279;-58
2021/07/13 00:24:55;;;;;;;14.58;10.75;;;;;;;20.06;74.50;99531.66;129657;1092;113779;-58
2021/07/13 00:27:24;;;;;;;16.95;11.30;;;;;;;20.05;74.77;99530.84;129785;1092;23809;-58
2021/07/13 00:29:53;;;;;;;19.90;11.45;;;;;;;20.01;74.47;99520.75;129701;1093;115541;-58
2021/07/13 00:32:22;;;;;;;13.78;11.48;;;;;;;19.96;74.78;99518.13;129787;1093;23116;-58
2021/07/13 00:34:50;;;;;;;16.08;10.40;;;;;;;19.93;74.87;99524.29;129794;1092;22601;-58
2021/07/13 00:37:38;;;;;;;16.15;11.08;;;;;;;19.89;74.77;99526.91;129647;1093;113869;-59
2021/07/13 00:40:08;;;;;;;17.40;10.28;;;;;;;19.84;74.50;99531.75;129769;1092;23083;-58
2021/07/13 00:42:37;;;;;;;15.55;11.25;;;;;;;19.72;74.91;99529.59;129680;1093;114294;-58
2021/07/13 00:45:06;;;;;;;15.85;9.43;;;;;;;19.69;75.24;99531.03;129754;1093;23385;-58
2021/07/13 00:47:35;;;;;;;14.68;9.80;;;;;;;19.68;75.54;99542.41;129625;1093;113994;-58
2021/07/13 00:50:05;;;;;;;15.05;11.75;;;;;;;19.69;75.47;99530.22;129819;1093;22562;-57
2021/07/13 00:52:34;;;;;;;14.03;10.75;;;;;;;19.71;75.60;99522.42;129786;1092;22664;-58
2021/07/13 00:55:04;;;;;;;16.13;11.88;;;;;;;19.74;75.42;99522.61;129704;1093;114371;-58
2021/07/13 00:57:33;;;;;;;20.08;11.38;;;;;;;19.77;75.42;99521.13;129783;1092;22731;-57
2021/07/13 01:00:11;;;;;;;17.28;10.80;;;;;;;19.79;75.12;99527.16;129676;1092;113255;-58
2021/07/13 01:02:42;;;;;;;17.18;10.08;;;;;;;19.82;75.37;99518.23;129775;1093;22584;-58
2021/07/13 01:05:19;;;;;;;18.80;10.65;;;;;;;19.82;75.06;99529.30;129709;1095;23067;-58
2021/07/13 01:08:04;;;;;;;15.10;10.85;;;;;;;19.80;74.84;99530.75;129690;1092;114072;-58
2021/07/13 01:11:10;;;;;;;15.15;9.08;;;;;;;19.79;74.78;99532.69;129723;1093;22633;-58
2021/07/13 01:13:53;;;;;;;11.30;9.25;;;;;;;19.81;74.67;99527.66;129666;1093;115125;-58
2021/07/13 01:16:50;;;;;;;10.55;8.80;;;;;;;19.83;74.35;99525.40;130082;1090;22635;-58
2021/07/13 01:20:03;;;;;;;8.35;7.55;;;;;;;19.84;73.91;99521.50;129989;1088;114869;-58
2021/07/13 01:22:54;;;;;;;9.53;8.40;;;;;;;19.89;73.99;99534.38;130085;1088;22556;-61
2021/07/13 01:25:46;;;;;;;8.48;7.30;;;;;;;19.90;73.94;99524.95;130031;1090;113739;-58
2021/07/13 01:28:19;;;;;;;10.05;6.78;;;;;;;19.91;73.80;99526.59;130078;1090;22724;-58
2021/07/13 01:30:52;;;;;;;7.45;6.73;;;;;;;19.92;73.45;99528.19;129972;1090;113889;-58
2021/07/13 01:33:24;;;;;;;7.95;6.90;;;;;;;19.94;73.27;99523.97;130122;1090;23431;-58
2021/07/13 01:36:02;;;;;;;8.05;7.20;;;;;;;19.95;73.60;99514.55;129951;1089;113919;-58
2021/07/13 01:38:34;;;;;;;9.83;6.83;;;;;;;19.96;73.19;99518.94;130050;1089;23338;-58
2021/07/13 01:41:05;;;;;;;10.10;6.80;;;;;;;19.96;73.34;99523.66;126423;1090;22805;-58
2021/07/13 01:43:37;;;;;;;7.23;6.43;;;;;;;19.94;73.12;99521.20;129962;1090;114161;-57
2021/07/13 01:46:07;;;;;;;8.48;7.43;;;;;;;19.93;73.22;99521.52;130071;1089;22577;-58
2021/07/13 01:48:39;;;;;;;11.45;6.93;;;;;;;19.89;73.53;99524.14;129980;1090;113799;-58
2021/07/13 01:51:13;;;;;;;9.53;7.70;;;;;;;19.87;73.55;99528.35;130057;1090;24336;-56
2021/07/13 01:54:05;;;;;;;8.28;7.25;;;;;;;19.84;73.68;99529.80;129997;1089;114010;-58
2021/07/13 01:56:35;;;;;;;7.55;6.83;;;;;;;19.82;73.54;99528.48;130086;1090;22580;-58
2021/07/13 01:59:05;;;;;;;7.60;6.85;;;;;;;19.80;73.78;99525.22;130042;1090;22619;-57
2021/07/13 02:01:34;;;;;;;8.60;7.48;;;;;;;19.80;73.85;99526.03;129920;1093;113983;-57
2021/07/13 02:04:03;;;;;;;8.13;7.08;;;;;;;19.77;73.92;99521.13;130065;1093;23203;-57
2021/07/13 02:06:33;;;;;;;8.25;6.63;;;;;;;19.73;73.84;99528.45;129963;1093;113927;-57
2021/07/13 02:09:06;;;;;;;9.85;7.25;;;;;;;19.69;74.21;99528.27;130014;1093;23348;-57
2021/07/13 02:11:35;;;;;;;7.75;6.68;;;;;;;19.64;74.07;99527.58;129900;1093;114681;-57
2021/07/13 02:14:24;;;;;;;7.98;7.18;;;;;;;19.60;74.32;99532.13;130039;1093;22599;-57
2021/07/13 02:16:53;;;;;;;8.78;7.78;;;;;;;19.54;74.63;99530.63;130060;1090;22531;-57
2021/07/13 02:19:40;;;;;;;8.65;7.43;;;;;;;19.47;74.89;99538.53;129913;1090;113589;-57
2021/07/13 02:22:10;;;;;;;9.48;8.13;;;;;;;19.43;75.02;99541.92;130024;1091;22583;-57
2021/07/13 02:24:48;;;;;;;10.33;7.90;;;;;;;19.41;75.27;99544.19;129938;1090;113918;-57
2021/07/13 02:27:19;;;;;;;8.70;7.40;;;;;;;19.42;75.60;99545.00;130021;1090;22569;-57
2021/07/13 02:29:59;;;;;;;9.93;7.28;;;;;;;19.40;75.44;99538.97;129744;1093;114084;-57
2021/07/13 02:32:54;;;;;;;8.85;6.93;;;;;;;19.40;75.76;99542.55;130077;1090;23463;-58
2021/07/13 02:35:31;;;;;;;10.65;7.53;;;;;;;19.41;75.50;99540.60;130053;1090;23659;-57
2021/07/13 02:38:00;;;;;;;;;;;;;;;19.45;75.65;99543.56;129988;1090;113480;-57
2021/07/13 02:40:49;;;;;;;10.25;7.10;;;;;;;19.49;75.56;99542.62;130114;1090;21319;-57
2021/07/13 02:43:19;;;;;;;9.83;7.35;;;;;;;19.52;75.72;99536.47;129977;1089;113789;-56
2021/07/13 02:45:52;;;;;;;9.43;7.33;;;;;;;19.57;75.44;99528.05;130029;1090;22587;-57
2021/07/13 02:48:21;;;;;;;10.35;6.70;;;;;;;19.62;75.46;99540.93;129919;1090;114618;-57
2021/07/13 02:50:52;;;;;;;8.58;7.60;;;;;;;19.66;75.35;99536.38;130085;1089;22538;-57
2021/07/13 02:53:22;;;;;;;8.60;7.28;;;;;;;19.71;75.24;99536.25;130091;1090;22784;-57
2021/07/13 02:55:51;;;;;;;8.35;6.80;;;;;;;19.76;74.96;99539.67;129948;1090;113682;-57
2021/07/13 02:58:20;;;;;;;9.70;7.43;;;;;;;19.83;75.06;99546.70;130058;1090;23601;-57
2021/07/13 03:00:50;;;;;;;10.13;7.60;;;;;;;19.88;74.76;99552.11;130004;1089;113613;-57
2021/07/13 03:03:21;;;;;;;14.60;7.15;;;;;;;19.94;74.53;99548.86;130104;1088;22661;-57
2021/07/13 03:05:51;;;;;;;11.28;6.73;;;;;;;20.02;74.25;99555.58;129953;1090;114441;-57
2021/07/13 03:08:22;;;;;;;10.65;6.73;;;;;;;20.11;74.21;99548.94;130051;1090;22701;-57
2021/07/13 03:10:54;;;;;;;9.98;6.93;;;;;;;20.19;73.70;99549.30;130097;1089;23529;-58
2021/07/13 03:13:25;;;;;;;10.93;8.03;;;;;;;20.28;73.37;99553.71;129991;1090;114009;-58
2021/07/13 03:15:54;;;;;;;9.10;6.23;;;;;;;20.37;72.94;99553.75;130069;1090;23269;-58
2021/07/13 03:18:24;;;;;;;8.50;5.80;;;;;;;20.46;72.61;99555.42;129976;1090;113510;-57
2021/07/13 03:20:53;;;;;;;8.43;5.45;;;;;;;20.56;71.89;99554.28;130093;1089;22544;-57
2021/07/13 03:23:22;;;;;;;7.30;6.10;;;;;;;20.66;71.70;99555.92;130060;1090;22561;-57
2021/07/13 03:25:51;;;;;;;6.15;5.28;;;;;;;20.74;71.00;99558.72;129935;1090;113616;-57
2021/07/13 03:28:20;;;;;;;8.65;5.03;;;;;;;20.85;70.70;99556.44;130068;1090;22636;-57
2021/07/13 03:30:49;;;;;;;5.75;5.15;;;;;;;20.96;70.33;99556.92;129967;1090;114448;-57
2021/07/13 03:33:18;;;;;;;11.43;5.00;;;;;;;21.03;69.56;99549.77;130055;1090;23720;-57
2021/07/13 03:35:48;;;;;;;7.83;5.35;;;;;;;21.12;69.17;99552.52;129970;1090;114205;-56
2021/07/13 03:38:17;;;;;;;8.38;5.33;;;;;;;21.16;69.19;99550.73;130013;1090;23230;-56
2021/07/13 03:40:46;;;;;;;9.23;5.65;;;;;;;21.22;69.14;99549.44;130048;1090;22639;-56
2021/07/13 03:43:15;;;;;;;7.68;6.00;;;;;;;21.27;69.30;99549.27;129958;1090;113592;-56
2021/07/13 03:45:44;;;;;;;7.45;5.35;;;;;;;21.33;69.15;99538.84;130061;1090;23152;-58
2021/07/13 03:48:16;;;;;;;5.85;5.25;;;;;;;21.40;69.55;99545.50;129998;1090;113820;-58
2021/07/13 03:50:45;;;;;;;6.48;5.35;;;;;;;21.46;69.85;99535.88;130073;1089;22536;-57
2021/07/13 03:53:14;;;;;;;7.98;5.65;;;;;;;21.52;69.47;99533.73;130062;1090;22576;-57
2021/07/13 03:55:44;;;;;;;9.70;5.30;;;;;;;21.59;69.35;99531.28;130009;1090;113645;-57
2021/07/13 03:58:13;;;;;;;7.88;5.53;;;;;;;21.69;69.37;99530.09;130101;1090;22535;-58
2021/07/13 04:00:42;;;;;;;6.48;4.80;;;;;;;21.78;69.09;99531.72;129965;1090;113419;-58
2021/07/13 04:03:10;;;;;;;13.68;5.60;;;;;;;21.88;68.67;99534.11;130111;1090;23400;-57
2021/07/13 04:05:40;;;;;;;11.75;6.15;;;;;;;21.97;68.64;99536.02;130038;1088;114235;-58
2021/07/13 04:08:09;;;;;;;9.28;5.10;;;;;;;22.04;68.37;99536.36;130061;1089;22578;-57
2021/07/13 04:10:38;;;;;;;9.03;5.43;;;;;;;22.10;67.71;99546.11;130064;1089;23162;-58
2021/07/13 04:13:07;;;;;;;9.20;5.78;;;;;;;22.14;66.84;99538.75;129980;1090;113860;-57
2021/07/13 04:15:37;;;;;;;19.53;5.53;;;;;;;22.18;66.64;99540.53;130117;1089;23388;-57
2021/07/13 04:18:26;;;;;;;10.40;5.20;;;;;;;22.28;66.76;99542.11;130017;1090;114485;-57
2021/07/13 04:20:55;;;;;;;7.43;5.48;;;;;;;22.38;66.49;99547.27;130084;1090;22565;-58
2021/07/13 04:23:24;;;;;;;7.70;5.13;;;;;;;22.51;65.54;99548.16;130129;1089;22524;-58
2021/07/13 04:25:53;;;;;;;8.48;5.25;;;;;;;22.63;65.89;99548.27;130000;1090;113837;-58
2021/07/13 04:28:22;;;;;;;13.43;5.15;;;;;;;22.79;64.96;99542.96;130112;1089;22984;-58
2021/07/13 04:30:53;;;;;;;11.28;4.83;;;;;;;22.95;64.42;99540.35;130033;1090;113605;-58
2021/07/13 04:33:22;;;;;;;18.50;5.20;;;;;;;23.10;64.00;99545.30;130016;1090;22639;-58
2021/07/13 04:35:51;;;;;;;11.40;5.00;;;;;;;23.25;62.86;99547.44;129991;1090;115334;-58
2021/07/13 04:38:20;;;;;;;7.20;4.50;;;;;;;23.38;62.47;99548.30;130111;1089;22646;-58
2021/07/13 04:40:49;;;;;;;6.15;4.20;;;;;;;23.46;61.89;99542.67;130129;1090;22578;-58
2021/07/13 04:43:19;;;;;;;7.03;4.98;;;;;;;23.56;61.71;99542.25;130000;1090;113738;-58
2021/07/13 04:45:59;;;;;;;5.55;4.78;;;;;;;23.66;61.55;99543.77;130106;1089;22527;-58
2021/07/13 04:48:29;;;;;;;13.40;4.90;;;;;;;23.76;61.32;99545.32;130017;1089;113826;-58
2021/07/13 04:51:19;;;;;;;6.63;4.70;;;;;;;23.86;60.44;99544.86;130102;1090;22638;-58
2021/07/13 04:53:48;;;;;;;7.95;5.10;;;;;;;23.94;60.71;99543.96;129999;1090;114194;-58
2021/07/13 04:56:17;;;;;;;7.00;4.90;;;;;;;24.03;60.64;99541.88;130098;1089;22584;-58
2021/07/13 04:58:46;;;;;;;9.30;5.63;;;;;;;24.10;60.06;99542.09;130072;1090;22693;-57
2021/07/13 05:01:15;;;;;;;5.50;4.98;;;;;;;24.17;59.64;99542.34;129968;1089;113766;-58
2021/07/13 05:03:44;;;;;;;7.68;5.20;;;;;;;24.22;59.93;99544.91;130091;1090;22574;-56
2021/07/13 05:06:14;;;;;;;6.18;4.48;;;;;;;24.28;58.99;99539.92;129975;1090;114015;-57
2021/07/13 05:08:47;;;;;;;10.70;4.75;;;;;;;24.36;59.18;99540.98;130092;1090;22626;-56
2021/07/13 05:11:17;;;;;;;6.78;4.30;;;;;;;24.42;58.60;99536.78;130095;1090;23098;-56
2021/07/13 05:13:47;;;;;;;16.88;4.50;;;;;;;24.47;58.72;99528.20;129990;1090;115007;-56
2021/07/13 05:16:16;;;;;;;12.03;5.48;;;;;;;24.55;57.45;99524.45;130099;1090;23832;-55
2021/07/13 05:18:46;;;;;;;13.85;5.73;;;;;;;24.64;58.41;99523.19;130013;1090;114305;-56
2021/07/13 05:21:15;;;;;;;7.23;4.93;;;;;;;24.81;57.80;99522.10;130089;1090;22723;-55
2021/07/13 05:24:04;;;;;;;8.98;4.93;;;;;;;25.02;57.30;99524.72;129993;1090;114959;-56
2021/07/13 05:26:33;;;;;;;7.73;5.13;;;;;;;25.23;56.56;99533.70;130071;1088;22667;-56
2021/07/13 05:29:03;;;;;;;10.30;5.20;;;;;;;25.51;56.61;99525.31;130047;1090;22532;-56
2021/07/13 05:31:33;;;;;;;16.68;5.55;;;;;;;25.83;55.04;99522.56;129974;1089;113970;-56
2021/07/13 05:34:02;;;;;;;9.10;4.95;;;;;;;26.15;54.98;99526.97;130086;1089;22581;-56
2021/07/13 05:36:31;;;;;;;12.78;5.75;;;;;;;26.51;54.10;99525.07;129996;1090;113794;-56
2021/07/13 05:39:00;;;;;;;12.58;5.25;;;;;;;26.88;53.22;99517.09;130081;1090;22557;-56
2021/07/13 05:41:33;;;;;;;9.23;4.53;;;;;;;27.27;51.89;99521.52;130082;1090;22611;-56
2021/07/13 05:44:06;;;;;;;14.20;5.03;;;;;;;27.64;51.54;99527.48;129978;1089;113995;-56
2021/07/13 05:46:35;;;;;;;12.78;4.95;;;;;;;28.01;49.95;99524.11;130072;1090;22580;-56
2021/07/13 05:49:04;;;;;;;4.95;4.20;;;;;;;28.32;49.64;99521.05;129996;1090;114342;-57
2021/07/13 05:51:34;;;;;;;6.98;4.30;;;;;;;28.65;48.46;99528.75;130089;1088;22753;-58
2021/07/13 05:54:03;;;;;;;14.33;4.78;;;;;;;28.93;47.80;99533.16;129933;1088;114817;-57
2021/07/13 05:56:32;;;;;;;11.73;4.70;;;;;;;29.11;46.45;99534.21;130080;1090;22531;-57
2021/07/13 05:59:01;;;;;;;7.70;4.38;;;;;;;29.28;47.29;99532.81;130121;1090;22606;-60
2021/07/13 06:01:31;;;;;;;9.48;4.20;;;;;;;29.51;46.54;99527.88;129942;1090;114196;-59
2021/07/13 06:04:00;;;;;;;11.58;4.85;;;;;;;29.76;46.40;99534.55;130097;1090;23461;-60
2021/07/13 06:06:29;;;;;;;10.60;5.33;;;;;;;29.96;45.70;99534.34;130025;1089;114061;-60
2021/07/13 06:08:58;;;;;;;8.85;4.65;;;;;;;30.03;45.39;99534.42;130098;1090;23845;-59
2021/07/13 06:11:27;;;;;;;7.83;5.00;;;;;;;29.94;43.97;99531.92;130113;1090;22680;-60
2021/07/13 06:13:57;;;;;;;10.20;4.98;;;;;;;29.71;44.74;99528.50;129991;1090;113576;-59
2021/07/13 06:16:26;;;;;;;8.13;4.55;;;;;;;29.47;45.07;99527.03;130058;1090;22563;-61
2021/07/13 06:18:55;;;;;;;9.70;4.83;;;;;;;29.32;45.78;99528.03;129932;1090;113914;-60
2021/07/13 06:21:24;;;;;;;5.58;4.68;;;;;;;29.18;45.75;99518.25;130031;1090;22596;-60
2021/07/13 06:23:55;;;;;;;10.25;5.33;;;;;;;29.00;46.82;99536.08;129981;1090;114163;-60
2021/07/13 06:26:24;;;;;;;8.13;4.85;;;;;;;28.78;46.91;99526.52;130048;1089;23812;-60
2021/07/13 06:28:53;;;;;;;9.95;5.40;;;;;;;28.53;47.20;99531.78;130085;1089;22599;-60
2021/07/13 06:31:23;;;;;;;9.20;4.98;;;;;;;28.26;47.54;99527.37;129862;1090;115118;-60
2021/07/13 06:33:52;;;;;;;6.38;4.43;;;;;;;28.04;48.16;99531.77;130033;1090;22580;-60
2021/07/13 06:36:20;;;;;;;6.53;5.20;;;;;;;27.91;48.23;99525.55;129991;1089;114927;-60
2021/07/13 06:38:51;;;;;;;18.48;6.38;;;;;;;27.81;49.68;99528.98;130063;1090;22589;-60
2021/07/13 06:41:20;;;;;;;7.58;5.53;;;;;;;27.76;50.00;99534.88;130053;1089;22554;-59
2021/07/13 06:43:49;;;;;;;12.38;5.55;;;;;;;27.74;49.37;99532.45;129958;1090;114253;-60
2021/07/13 06:46:18;;;;;;;8.58;5.45;;;;;;;27.69;50.25;99534.77;130068;1090;22595;-60
2021/07/13 06:48:47;;;;;;;11.45;5.50;;;;;;;27.60;50.06;99531.38;129944;1090;113806;-60
2021/07/13 06:51:16;;;;;;;20.43;5.60;;;;;;;27.51;50.27;99526.00;130073;1090;23913;-60
2021/07/13 06:53:44;;;;;;;10.10;6.08;;;;;;;27.46;50.86;99526.30;129919;1090;114006;-59
2021/07/13 06:56:15;;;;;;;9.55;5.48;;;;;;;27.43;50.73;99527.03;130047;1089;22544;-59
2021/07/13 06:58:44;;;;;;;9.13;5.85;;;;;;;27.40;51.17;99531.41;130087;1090;22625;-60
2021/07/13 07:01:13;;;;;;;9.48;5.70;;;;;;;27.44;51.53;99525.85;129992;1090;113779;-60
2021/07/13 07:03:41;;;;;;;12.38;5.25;;;;;;;27.49;51.28;99524.75;130093;1089;22623;-60
2021/07/13 07:06:10;;;;;;;6.43;5.18;;;;;;;27.50;51.65;99521.58;129982;1090;114394;-60
2021/07/13 07:08:39;;;;;;;11.78;5.88;;;;;;;27.53;51.57;99518.05;130098;1090;22527;-60
2021/07/13 07:11:11;;;;;;;15.03;5.70;;;;;;;27.58;51.57;99523.35;130091;1090;22559;-60
2021/07/13 07:13:42;;;;;;;6.98;5.50;;;;;;;27.63;52.59;99525.05;129966;1090;113812;-60
2021/07/13 07:16:11;;;;;;;8.25;5.90;;;;;;;27.67;51.57;99528.73;130102;1089;24322;-60
2021/07/13 07:19:00;;;;;;;9.98;5.23;;;;;;;27.68;51.10;99525.56;129972;1090;114306;-60
2021/07/13 07:21:29;;;;;;;8.08;6.00;;;;;;;27.66;51.63;99530.72;130113;1090;22979;-60
2021/07/13 07:23:58;;;;;;;5.73;5.20;;;;;;;27.67;51.96;99531.53;129990;1090;113938;-60
2021/07/13 07:26:26;;;;;;;9.45;5.28;;;;;;;27.68;52.35;99531.16;130133;1090;22637;-60
2021/07/13 07:28:55;;;;;;;6.85;5.65;;;;;;;27.72;51.18;99532.02;130087;1090;22559;-60
2021/07/13 07:31:24;;;;;;;7.65;5.98;;;;;;;27.75;51.38;99534.07;129986;1088;114029;-60
2021/07/13 07:33:53;;;;;;;8.63;6.03;;;;;;;27.78;51.96;99526.92;130095;1089;22584;-60
2021/07/13 07:36:25;;;;;;;8.65;6.15;;;;;;;27.83;51.64;99534.22;130350;1089;114428;-60
2021/07/13 07:38:54;;;;;;;6.73;5.75;;;;;;;27.88;51.82;99531.89;130465;1088;22582;-60
2021/07/13 07:41:23;;;;;;;8.28;5.50;;;;;;;27.91;51.86;99528.35;130438;1089;22586;-60
2021/07/13 07:43:52;;;;;;;8.15;5.65;;;;;;;27.94;51.68;99529.60;130351;1090;113845;-60
2021/07/13 07:46:21;;;;;;;8.63;6.08;;;;;;;27.93;51.75;99527.98;130500;1089;24788;-60
2021/07/13 07:48:50;;;;;;;11.73;7.03;;;;;;;27.91;50.98;99522.75;130405;1089;113959;-60
2021/07/13 07:51:19;;;;;;;13.33;6.83;;;;;;;27.90;51.22;99520.32;130493;1088;22581;-60
2021/07/13 07:53:48;;;;;;;6.80;6.10;;;;;;;27.88;51.69;99522.69;130406;1089;114527;-60
2021/07/13 07:56:17;;;;;;;6.28;5.68;;;;;;;27.86;50.88;99525.85;130513;1089;22580;-60
2021/07/13 07:58:46;;;;;;;11.10;6.18;;;;;;;27.84;51.32;99517.05;130501;1089;22651;-60
2021/07/13 08:01:17;;;;;;;7.95;6.20;;;;;;;27.83;51.56;99517.41;130356;1089;113972;-60
2021/07/13 08:03:45;;;;;;;17.38;7.78;;;;;;;27.79;51.59;99518.16;130505;1089;22567;-60
2021/07/13 08:06:30;;;;;;;8.95;6.93;;;;;;;27.77;52.21;99509.31;130385;1090;114419;-60
2021/07/13 08:08:58;;;;;;;11.08;7.33;;;;;;;27.76;51.89;99516.09;130471;1090;22567;-60
2021/07/13 08:11:27;;;;;;;7.83;6.63;;;;;;;27.76;51.85;99510.49;130487;1090;23067;-60
2021/07/13 08:14:00;;;;;;;9.40;7.05;;;;;;;27.77;52.14;99505.70;130396;1090;113474;-60
2021/07/13 08:16:35;;;;;;;8.73;7.35;;;;;;;27.77;51.00;99503.72;130508;1089;22601;-60
2021/07/13 08:19:14;;;;;;;10.15;7.15;;;;;;;27.78;51.77;99504.52;130363;1090;113807;-60
2021/07/13 08:21:43;;;;;;;14.80;7.25;;;;;;;27.78;51.08;99502.53;130497;1089;22667;-60
2021/07/13 08:24:12;;;;;;;9.83;6.68;;;;;;;27.80;51.26;99504.97;130371;1090;114498;-60
2021/07/13 08:26:41;;;;;;;10.50;7.23;;;;;;;27.82;51.15;99507.39;130520;1090;22543;-60
2021/07/13 08:29:10;;;;;;;11.00;7.43;;;;;;;27.84;51.03;99502.23;130498;1090;23109;-60
2021/07/13 08:31:40;;;;;;;9.85;7.40;;;;;;;27.83;50.59;99503.41;130401;1089;113928;-60
2021/07/13 08:34:09;;;;;;;11.70;7.53;;;;;;;27.80;51.31;99505.77;130503;1088;22591;-60
2021/07/13 08:36:39;;;;;;;17.10;7.53;;;;;;;27.82;51.36;99504.59;130389;1089;114218;-60
2021/07/13 08:39:08;;;;;;;8.98;6.98;;;;;;;27.83;51.24;99506.22;130475;1090;22566;-60
2021/07/13 08:41:37;;;;;;;10.23;7.10;;;;;;;27.86;52.81;99499.84;130456;1088;22563;-60
2021/07/13 08:44:07;;;;;;;12.68;7.30;;;;;;;27.95;52.26;99508.81;130396;1090;113929;-60
2021/07/13 08:46:40;;;;;;;13.18;7.50;;;;;;;27.99;51.94;99502.07;130453;1090;22526;-60
2021/07/13 08:49:10;;;;;;;10.43;8.15;;;;;;;28.04;52.41;99510.16;130372;1088;113927;-60
2021/07/13 08:51:40;;;;;;;9.58;7.68;;;;;;;28.09;52.87;99506.25;130494;1089;23364;-60
2021/07/13 08:54:09;;;;;;;14.08;7.75;;;;;;;28.14;52.91;99509.52;130391;1090;114081;-60
2021/07/13 08:56:38;;;;;;;13.68;7.33;;;;;;;28.21;52.12;99505.26;130475;1089;22565;-60
2021/07/13 08:59:07;;;;;;;19.60;7.70;;;;;;;28.26;51.80;99505.76;130490;1089;22641;-60
2021/07/13 09:01:36;;;;;;;24.03;9.18;;;;;;;28.31;52.00;99504.61;130382;1090;113295;-60
2021/07/13 09:04:06;;;;;;;11.30;6.65;;;;;;;28.37;51.92;99503.92;130476;1089;23451;-61
2021/07/13 09:06:49;;;;;;;10.43;7.83;;;;;;;28.42;51.14;99511.98;130328;1089;113927;-60
2021/07/13 09:09:26;;;;;;;12.65;7.25;;;;;;;28.42;49.82;99511.98;130478;1090;22564;-60
2021/07/13 09:12:10;;;;;;;10.90;7.65;;;;;;;28.41;50.49;99510.40;130361;1090;114863;-60
2021/07/13 09:14:50;;;;;;;11.13;8.08;;;;;;;28.43;51.52;99515.59;130465;1090;23367;-60
2021/07/13 09:17:35;;;;;;;11.63;7.65;;;;;;;28.48;51.92;99507.69;130487;1089;22608;-60
2021/07/13 09:20:23;;;;;;;10.85;7.60;;;;;;;28.57;51.14;99509.42;130338;1090;114067;-60
2021/07/13 09:22:58;;;;;;;29.20;9.43;;;;;;;28.58;51.72;99503.41;130489;1090;22575;-60
2021/07/13 09:25:36;;;;;;;13.98;7.55;;;;;;;28.63;51.91;99507.89;130364;1089;114981;-60
2021/07/13 09:28:18;;;;;;;9.33;7.08;;;;;;;28.65;50.93;99503.52;130472;1088;22556;-60
2021/07/13 09:30:58;;;;;;;12.13;7.38;;;;;;;28.67;51.15;99503.14;130293;1090;113784;-60
2021/07/13 09:33:28;;;;;;;11.83;7.70;;;;;;;28.68;51.03;99504.77;130473;1089;22573;-60
2021/07/13 09:36:01;;;;;;;8.75;7.30;;;;;;;28.68;50.27;99513.98;130383;1090;113948;-60
2021/07/13 09:38:45;;;;;;;10.77;6.93;;;;;;;28.67;50.85;99508.75;130454;1090;22563;-60
2021/07/13 09:41:23;;;;;;;14.08;7.53;;;;;;;28.68;50.06;99510.38;130481;1088;22561;-60
2021/07/13 09:43:53;;;;;;;12.90;8.38;;;;;;;28.69;50.16;99511.99;130328;1090;114347;-60
2021/07/13 09:46:31;;;;;;;10.30;7.43;;;;;;;28.69;49.49;99511.99;130453;1090;22542;-60
2021/07/13 09:49:20;;;;;;;10.10;7.73;;;;;;;28.70;50.32;99508.81;130371;1088;114198;-60
2021/07/13 09:52:01;;;;;;;11.68;6.93;;;;;;;28.73;50.46;99508.02;130480;1090;23731;-60
2021/07/13 09:54:32;;;;;;;;;;;;;;;28.78;49.78;99502.09;130331;1089;114680;-60
2021/07/13 09:57:03;;;;;;;11.28;7.05;;;;;;;28.84;48.92;99508.22;130473;1089;22621;-60
2021/07/13 09:59:32;;;;;;;10.05;7.08;;;;;;;28.89;49.95;99505.06;130444;1090;22527;-60
2021/07/13 10:02:05;;;;;;;9.80;7.03;;;;;;;28.95;48.08;99502.74;130058;1090;113964;-60
2021/07/13 10:04:35;;;;;;;12.95;6.38;;;;;;;28.97;48.18;99508.78;130492;1090;22575;-60
2021/07/13 10:07:23;;;;;;;9.48;6.80;;;;;;;28.98;48.18;99510.40;130377;1090;113922;-60
2021/07/13 10:09:55;;;;;;;13.53;6.28;;;;;;;28.98;48.41;99505.59;130442;1089;22550;-60
2021/07/13 10:12:26;;;;;;;7.93;6.63;;;;;;;29.02;48.67;99508.42;130352;1089;114144;-61
2021/07/13 10:14:59;;;;;;;6.50;5.70;;;;;;;29.02;48.31;99509.23;130489;1089;22528;-60
2021/07/13 10:17:31;;;;;;;10.80;5.93;;;;;;;29.05;48.07;99508.48;130467;1090;22584;-60
2021/07/13 10:20:13;;;;;;;8.58;6.08;;;;;;;29.07;49.58;99506.10;130353;1088;112861;-61
2021/07/13 10:22:45;;;;;;;10.10;6.43;;;;;;;29.13;49.09;99498.16;130437;1090;22582;-60
2021/07/13 10:25:14;;;;;;;7.23;6.30;;;;;;;29.20;47.93;99510.27;130338;1088;114221;-60
2021/07/13 10:27:50;;;;;;;10.65;6.30;;;;;;;29.23;47.92;99503.08;130453;1089;22528;-61
2021/07/13 10:30:21;;;;;;;11.28;6.33;;;;;;;29.21;48.16;99511.07;130405;1090;114324;-60
2021/07/13 10:32:50;;;;;;;9.28;6.05;;;;;;;29.18;47.84;99500.61;130461;1088;23286;-60
2021/07/13 10:35:25;;;;;;;7.00;6.05;;;;;;;29.13;47.90;99498.97;130450;1090;23528;-60
2021/07/13 10:37:56;;;;;;;16.25;7.15;;;;;;;29.06;48.66;99498.88;130374;1088;113839;-61
2021/07/13 10:40:24;;;;;;;22.30;7.35;;;;;;;29.11;49.16;99501.34;130487;1089;22581;-60
2021/07/13 10:42:56;;;;;;;14.13;6.83;;;;;;;29.15;48.46;99504.98;130360;1088;114587;-60
2021/07/13 10:45:30;;;;;;;15.38;7.05;;;;;;;29.18;47.62;99503.41;130482;1089;22590;-60
2021/07/13 10:48:06;;;;;;;9.75;6.50;;;;;;;29.15;47.33;99507.79;130381;1089;117805;-60
2021/07/13 10:50:57;;;;;;;8.28;6.23;;;;;;;29.10;47.25;99496.92;130469;1089;23716;-60
2021/07/13 10:53:39;;;;;;;9.65;6.50;;;;;;;29.05;48.48;99493.64;130461;1088;23179;-60
2021/07/13 10:56:14;;;;;;;11.38;6.50;;;;;;;29.07;48.60;99497.69;130383;1089;113901;-60
2021/07/13 10:58:49;;;;;;;8.10;5.75;;;;;;;29.12;47.84;99496.55;130470;1089;22652;-60
2021/07/13 11:01:27;;;;;;;7.58;6.33;;;;;;;29.14;48.08;99491.36;130330;1090;113700;-60
2021/07/13 11:04:04;;;;;;;7.03;5.55;;;;;;;29.18;49.08;99494.99;130480;1089;22646;-60
2021/07/13 11:06:46;;;;;;;9.58;6.20;;;;;;;29.24;47.98;99499.09;130373;1088;113702;-60
2021/07/13 11:09:29;;;;;;;11.20;6.30;;;;;;;29.25;47.94;99495.09;130465;1089;22597;-60
2021/07/13 11:12:03;;;;;;;6.95;5.85;;;;;;;29.25;48.32;99491.48;130384;1088;114165;-60
2021/07/13 11:14:51;;;;;;;10.83;5.65;;;;;;;29.27;48.14;99484.30;130512;1088;22509;-60
2021/07/13 11:17:21;;;;;;;7.00;6.13;;;;;;;29.30;47.71;99486.30;130496;1090;23809;-59
2021/07/13 11:20:11;;;;;;;8.95;5.73;;;;;;;29.33;48.20;99490.34;130372;1090;113795;-60
2021/07/13 11:22:43;;;;;;;12.58;5.80;;;;;;;29.35;47.45;99491.59;130460;1090;22552;-60
2021/07/13 11:25:22;;;;;;;7.33;6.10;;;;;;;29.37;47.27;99491.20;130383;1088;114023;-60
2021/07/13 11:28:00;;;;;;;8.48;6.18;;;;;;;29.39;46.58;99489.66;130414;1088;22649;-60
2021/07/13 11:30:29;;;;;;;12.13;6.35;;;;;;;29.40;46.75;99485.66;130358;1089;114276;-60
2021/07/13 11:33:02;;;;;;;9.98;5.98;;;;;;;29.35;47.71;99482.36;130516;1089;23072;-61
2021/07/13 11:35:31;;;;;;;6.95;6.20;;;;;;;29.40;47.00;99484.86;130489;1090;22573;-60
2021/07/13 11:38:00;;;;;;;8.05;5.33;;;;;;;29.39;46.93;99489.66;130362;1090;113872;-60
2021/07/13 11:40:29;;;;;;;7.50;5.90;;;;;;;29.39;47.08;99486.05;130505;1089;22596;-61
2021/07/13 11:42:58;;;;;;;7.80;5.95;;;;;;;29.41;46.88;99483.67;130349;1090;114343;-60
2021/07/13 11:45:28;;;;;;;9.40;6.68;;;;;;;29.44;48.02;99486.48;130426;1090;23111;-60